sensor_id;sensor_type;location;lat;lon;timestamp;temperature;humidity
37972;DHT22;23794;48.234;8.344;2022-07-06T00:01:44;14.80;93.50
37972;DHT22;23794;48.234;8.344;2022-07-06T00:04:11;14.80;93.80
37972;DHT22;23794;48.234;8.344;2022-07-06T00:06:38;14.80;93.50
37972;DHT22;23794;48.234;8.344;2022-07-06T00:09:05;14.80;94.00
37972;DHT22;23794;48.234;8.344;2022-07-06T00:11:33;14.80;94.40
37972;DHT22;23794;48.234;8.344;2022-07-06T00:13:59;14.70;93.80
37972;DHT22;23794;48.234;8.344;2022-07-06T00:16:26;14.70;94.40
37972;DHT22;23794;48.234;8.344;2022-07-06T00:18:53;14.80;94.00
37972;DHT22;23794;48.234;8.344;2022-07-06T00:21:19;14.80;93.30
37972;DHT22;23794;48.234;8.344;2022-07-06T00:23:46;14.70;93.60
37972;DHT22;23794;48.234;8.344;2022-07-06T00:26:13;14.70;94.10
37972;DHT22;23794;48.234;8.344;2022-07-06T00:28:40;14.80;94.00
37972;DHT22;23794;48.234;8.344;2022-07-06T00:31:06;14.80;93.90
37972;DHT22;23794;48.234;8.344;2022-07-06T00:33:33;14.80;93.80
37972;DHT22;23794;48.234;8.344;2022-07-06T00:36:00;14.70;93.80
37972;DHT22;23794;48.234;8.344;2022-07-06T00:38:27;14.60;93.60
37972;DHT22;23794;48.234;8.344;2022-07-06T00:40:53;14.50;93.50
37972;DHT22;23794;48.234;8.344;2022-07-06T00:43:20;14.40;93.80
37972;DHT22;23794;48.234;8.344;2022-07-06T00:45:47;14.40;93.80
37972;DHT22;23794;48.234;8.344;2022-07-06T00:48:13;14.30;93.60
37972;DHT22;23794;48.234;8.344;2022-07-06T00:50:41;14.30;93.80
37972;DHT22;23794;48.234;8.344;2022-07-06T00:53:08;14.30;94.30
37972;DHT22;23794;48.234;8.344;2022-07-06T00:55:36;14.30;94.60
37972;DHT22;23794;48.234;8.344;2022-07-06T00:58:03;14.30;94.60
37972;DHT22;23794;48.234;8.344;2022-07-06T01:00:31;14.30;94.40
37972;DHT22;23794;48.234;8.344;2022-07-06T01:02:57;14.30;94.80
37972;DHT22;23794;48.234;8.344;2022-07-06T01:05:24;14.30;94.70
37972;DHT22;23794;48.234;8.344;2022-07-06T01:07:51;14.30;94.30
37972;DHT22;23794;48.234;8.344;2022-07-06T01:10:19;14.10;94.80
37972;DHT22;23794;48.234;8.344;2022-07-06T01:12:46;14.10;95.00
37972;DHT22;23794;48.234;8.344;2022-07-06T01:15:16;14.20;95.10
37972;DHT22;23794;48.234;8.344;2022-07-06T01:17:43;14.20;94.80
37972;DHT22;23794;48.234;8.344;2022-07-06T01:22:37;14.10;95.00
37972;DHT22;23794;48.234;8.344;2022-07-06T01:25:04;14.10;95.00
37972;DHT22;23794;48.234;8.344;2022-07-06T01:27:31;14.00;95.10
37972;DHT22;23794;48.234;8.344;2022-07-06T01:29:58;14.00;95.50
37972;DHT22;23794;48.234;8.344;2022-07-06T01:32:25;13.90;95.40
37972;DHT22;23794;48.234;8.344;2022-07-06T01:34:52;13.90;95.20
37972;DHT22;23794;48.234;8.344;2022-07-06T01:37:19;13.80;95.60
37972;DHT22;23794;48.234;8.344;2022-07-06T01:39:47;13.80;96.00
37972;DHT22;23794;48.234;8.344;2022-07-06T01:42:13;13.80;95.90
37972;DHT22;23794;48.234;8.344;2022-07-06T01:44:40;13.80;96.10
37972;DHT22;23794;48.234;8.344;2022-07-06T01:47:07;13.80;96.20
37972;DHT22;23794;48.234;8.344;2022-07-06T01:49:34;13.80;96.00
37972;DHT22;23794;48.234;8.344;2022-07-06T01:52:01;13.80;95.80
37972;DHT22;23794;48.234;8.344;2022-07-06T01:54:27;13.80;95.80
37972;DHT22;23794;48.234;8.344;2022-07-06T01:56:54;13.70;96.40
37972;DHT22;23794;48.234;8.344;2022-07-06T01:59:21;13.60;96.00
37972;DHT22;23794;48.234;8.344;2022-07-06T02:01:49;13.60;96.40
37972;DHT22;23794;48.234;8.344;2022-07-06T02:04:16;13.60;96.50
37972;DHT22;23794;48.234;8.344;2022-07-06T02:06:43;13.50;96.70
37972;DHT22;23794;48.234;8.344;2022-07-06T02:09:09;13.50;96.70
37972;DHT22;23794;48.234;8.344;2022-07-06T02:11:36;13.50;97.10
37972;DHT22;23794;48.234;8.344;2022-07-06T02:14:03;13.40;96.80
37972;DHT22;23794;48.234;8.344;2022-07-06T02:16:30;13.30;97.30
37972;DHT22;23794;48.234;8.344;2022-07-06T02:18:57;13.30;97.70
37972;DHT22;23794;48.234;8.344;2022-07-06T02:21:27;13.30;97.80
37972;DHT22;23794;48.234;8.344;2022-07-06T02:23:53;13.30;97.70
37972;DHT22;23794;48.234;8.344;2022-07-06T02:26:21;13.40;97.90
37972;DHT22;23794;48.234;8.344;2022-07-06T02:28:48;13.30;97.90
37972;DHT22;23794;48.234;8.344;2022-07-06T02:31:15;13.30;97.80
37972;DHT22;23794;48.234;8.344;2022-07-06T02:33:45;13.30;98.10
37972;DHT22;23794;48.234;8.344;2022-07-06T02:36:12;13.30;98.20
37972;DHT22;23794;48.234;8.344;2022-07-06T02:38:41;13.30;98.00
37972;DHT22;23794;48.234;8.344;2022-07-06T02:41:08;13.20;98.30
37972;DHT22;23794;48.234;8.344;2022-07-06T02:43:36;13.20;98.40
37972;DHT22;23794;48.234;8.344;2022-07-06T02:46:03;13.10;98.30
37972;DHT22;23794;48.234;8.344;2022-07-06T02:48:30;13.10;98.70
37972;DHT22;23794;48.234;8.344;2022-07-06T02:50:57;13.10;98.90
37972;DHT22;23794;48.234;8.344;2022-07-06T02:53:25;13.00;99.00
37972;DHT22;23794;48.234;8.344;2022-07-06T02:55:54;13.00;99.10
37972;DHT22;23794;48.234;8.344;2022-07-06T02:58:20;13.00;99.20
37972;DHT22;23794;48.234;8.344;2022-07-06T03:00:47;12.90;99.50
37972;DHT22;23794;48.234;8.344;2022-07-06T03:03:15;12.80;99.50
37972;DHT22;23794;48.234;8.344;2022-07-06T03:05:42;12.90;99.70
37972;DHT22;23794;48.234;8.344;2022-07-06T03:08:09;12.90;99.80
37972;DHT22;23794;48.234;8.344;2022-07-06T03:10:36;12.90;99.70
37972;DHT22;23794;48.234;8.344;2022-07-06T03:13:02;12.90;99.80
37972;DHT22;23794;48.234;8.344;2022-07-06T03:15:30;13.00;99.50
37972;DHT22;23794;48.234;8.344;2022-07-06T03:17:58;12.90;99.90
37972;DHT22;23794;48.234;8.344;2022-07-06T03:20:25;12.90;99.90
37972;DHT22;23794;48.234;8.344;2022-07-06T03:22:51;13.00;99.90
37972;DHT22;23794;48.234;8.344;2022-07-06T03:25:18;13.00;99.80
37972;DHT22;23794;48.234;8.344;2022-07-06T03:27:45;13.00;99.90
37972;DHT22;23794;48.234;8.344;2022-07-06T03:30:14;12.90;99.90
37972;DHT22;23794;48.234;8.344;2022-07-06T03:32:47;12.90;99.90
37972;DHT22;23794;48.234;8.344;2022-07-06T03:35:14;12.90;99.90
37972;DHT22;23794;48.234;8.344;2022-07-06T03:37:44;12.90;99.90
37972;DHT22;23794;48.234;8.344;2022-07-06T03:40:12;12.80;99.90
37972;DHT22;23794;48.234;8.344;2022-07-06T03:42:40;12.90;99.90
37972;DHT22;23794;48.234;8.344;2022-07-06T03:45:09;12.90;99.90
37972;DHT22;23794;48.234;8.344;2022-07-06T03:47:36;12.80;99.90
37972;DHT22;23794;48.234;8.344;2022-07-06T03:50:03;12.80;99.90
37972;DHT22;23794;48.234;8.344;2022-07-06T03:52:30;12.70;99.90
37972;DHT22;23794;48.234;8.344;2022-07-06T03:54:56;12.70;99.90
37972;DHT22;23794;48.234;8.344;2022-07-06T03:57:27;12.70;99.90
37972;DHT22;23794;48.234;8.344;2022-07-06T03:59:57;12.80;99.90
37972;DHT22;23794;48.234;8.344;2022-07-06T04:02:23;12.80;99.90
37972;DHT22;23794;48.234;8.344;2022-07-06T04:04:51;12.80;99.90
37972;DHT22;23794;48.234;8.344;2022-07-06T04:07:18;12.80;99.90
37972;DHT22;23794;48.234;8.344;2022-07-06T04:09:45;12.80;99.90
37972;DHT22;23794;48.234;8.344;2022-07-06T04:12:12;12.80;99.90
37972;DHT22;23794;48.234;8.344;2022-07-06T04:14:43;12.80;99.90
37972;DHT22;23794;48.234;8.344;2022-07-06T04:17:09;12.90;99.90
37972;DHT22;23794;48.234;8.344;2022-07-06T04:19:55;13.00;99.90
37972;DHT22;23794;48.234;8.344;2022-07-06T04:22:22;13.10;99.90
37972;DHT22;23794;48.234;8.344;2022-07-06T04:24:49;13.10;99.90
37972;DHT22;23794;48.234;8.344;2022-07-06T04:27:15;13.10;99.90
37972;DHT22;23794;48.234;8.344;2022-07-06T04:29:43;13.10;99.90
37972;DHT22;23794;48.234;8.344;2022-07-06T04:32:09;13.10;99.90
37972;DHT22;23794;48.234;8.344;2022-07-06T04:34:36;13.10;99.90
37972;DHT22;23794;48.234;8.344;2022-07-06T04:37:04;13.10;99.90
37972;DHT22;23794;48.234;8.344;2022-07-06T04:39:30;13.10;99.90
37972;DHT22;23794;48.234;8.344;2022-07-06T04:41:59;13.20;99.90
37972;DHT22;23794;48.234;8.344;2022-07-06T04:44:26;13.20;99.90
37972;DHT22;23794;48.234;8.344;2022-07-06T04:46:52;13.20;99.90
37972;DHT22;23794;48.234;8.344;2022-07-06T04:49:20;13.20;99.90
37972;DHT22;23794;48.234;8.344;2022-07-06T04:51:47;13.20;99.90
37972;DHT22;23794;48.234;8.344;2022-07-06T04:54:14;13.30;99.90
37972;DHT22;23794;48.234;8.344;2022-07-06T04:56:40;13.30;99.90
37972;DHT22;23794;48.234;8.344;2022-07-06T04:59:07;13.30;99.90
37972;DHT22;23794;48.234;8.344;2022-07-06T05:01:35;13.40;99.90
37972;DHT22;23794;48.234;8.344;2022-07-06T05:04:01;13.40;99.90
37972;DHT22;23794;48.234;8.344;2022-07-06T05:06:28;13.40;99.90
37972;DHT22;23794;48.234;8.344;2022-07-06T05:08:55;13.50;99.90
37972;DHT22;23794;48.234;8.344;2022-07-06T05:11:23;13.50;99.90
37972;DHT22;23794;48.234;8.344;2022-07-06T05:13:51;13.50;99.90
37972;DHT22;23794;48.234;8.344;2022-07-06T05:16:18;13.60;99.90
37972;DHT22;23794;48.234;8.344;2022-07-06T05:18:45;13.70;99.90
37972;DHT22;23794;48.234;8.344;2022-07-06T05:21:12;13.70;99.90
37972;DHT22;23794;48.234;8.344;2022-07-06T05:23:38;13.70;99.90
37972;DHT22;23794;48.234;8.344;2022-07-06T05:26:05;13.80;99.90
37972;DHT22;23794;48.234;8.344;2022-07-06T05:28:33;13.90;99.90
37972;DHT22;23794;48.234;8.344;2022-07-06T05:31:04;14.00;99.90
37972;DHT22;23794;48.234;8.344;2022-07-06T05:33:31;14.10;99.90
37972;DHT22;23794;48.234;8.344;2022-07-06T05:35:58;14.10;99.90
37972;DHT22;23794;48.234;8.344;2022-07-06T05:38:27;14.20;99.90
37972;DHT22;23794;48.234;8.344;2022-07-06T05:40:54;14.30;99.90
37972;DHT22;23794;48.234;8.344;2022-07-06T05:43:21;14.40;99.90
37972;DHT22;23794;48.234;8.344;2022-07-06T05:45:48;14.40;99.90
37972;DHT22;23794;48.234;8.344;2022-07-06T05:48:17;14.60;99.90
37972;DHT22;23794;48.234;8.344;2022-07-06T05:51:04;14.70;99.90
37972;DHT22;23794;48.234;8.344;2022-07-06T05:53:31;14.90;99.90
37972;DHT22;23794;48.234;8.344;2022-07-06T05:55:58;14.90;99.90
37972;DHT22;23794;48.234;8.344;2022-07-06T05:58:26;15.00;99.90
37972;DHT22;23794;48.234;8.344;2022-07-06T06:00:57;15.10;99.90
37972;DHT22;23794;48.234;8.344;2022-07-06T06:03:24;15.10;99.90
37972;DHT22;23794;48.234;8.344;2022-07-06T06:05:51;15.30;99.90
37972;DHT22;23794;48.234;8.344;2022-07-06T06:08:19;15.40;99.90
37972;DHT22;23794;48.234;8.344;2022-07-06T06:10:49;15.50;99.90
37972;DHT22;23794;48.234;8.344;2022-07-06T06:13:18;15.60;99.90
37972;DHT22;23794;48.234;8.344;2022-07-06T06:15:45;15.80;99.80
37972;DHT22;23794;48.234;8.344;2022-07-06T06:18:13;15.90;99.90
37972;DHT22;23794;48.234;8.344;2022-07-06T06:20:39;16.00;99.90
37972;DHT22;23794;48.234;8.344;2022-07-06T06:23:06;16.10;99.90
37972;DHT22;23794;48.234;8.344;2022-07-06T06:25:35;16.30;99.90
37972;DHT22;23794;48.234;8.344;2022-07-06T06:28:07;16.40;98.30
37972;DHT22;23794;48.234;8.344;2022-07-06T06:30:35;16.50;97.40
37972;DHT22;23794;48.234;8.344;2022-07-06T06:33:09;16.70;97.80
37972;DHT22;23794;48.234;8.344;2022-07-06T06:35:36;16.90;97.30
37972;DHT22;23794;48.234;8.344;2022-07-06T06:38:02;17.00;97.40
37972;DHT22;23794;48.234;8.344;2022-07-06T06:40:29;17.10;97.90
37972;DHT22;23794;48.234;8.344;2022-07-06T06:42:56;17.20;97.80
37972;DHT22;23794;48.234;8.344;2022-07-06T06:45:23;17.40;97.00
37972;DHT22;23794;48.234;8.344;2022-07-06T06:47:50;17.60;96.50
37972;DHT22;23794;48.234;8.344;2022-07-06T06:50:17;17.60;95.10
37972;DHT22;23794;48.234;8.344;2022-07-06T06:52:43;17.80;95.80
37972;DHT22;23794;48.234;8.344;2022-07-06T06:55:10;18.00;95.50
37972;DHT22;23794;48.234;8.344;2022-07-06T06:57:37;18.10;94.50
37972;DHT22;23794;48.234;8.344;2022-07-06T07:00:04;18.20;93.80
37972;DHT22;23794;48.234;8.344;2022-07-06T07:02:30;18.30;93.40
37972;DHT22;23794;48.234;8.344;2022-07-06T07:04:57;18.40;93.40
37972;DHT22;23794;48.234;8.344;2022-07-06T07:07:24;18.50;93.50
37972;DHT22;23794;48.234;8.344;2022-07-06T07:09:51;18.60;93.00
37972;DHT22;23794;48.234;8.344;2022-07-06T07:12:17;18.80;92.60
37972;DHT22;23794;48.234;8.344;2022-07-06T07:14:44;18.90;92.10
37972;DHT22;23794;48.234;8.344;2022-07-06T07:17:11;19.00;92.30
37972;DHT22;23794;48.234;8.344;2022-07-06T07:19:38;19.00;91.80
37972;DHT22;23794;48.234;8.344;2022-07-06T07:22:05;19.00;91.50
37972;DHT22;23794;48.234;8.344;2022-07-06T07:24:32;19.00;91.00
37972;DHT22;23794;48.234;8.344;2022-07-06T07:26:58;19.10;91.10
37972;DHT22;23794;48.234;8.344;2022-07-06T07:29:25;19.00;90.30
37972;DHT22;23794;48.234;8.344;2022-07-06T07:31:52;19.20;90.40
37972;DHT22;23794;48.234;8.344;2022-07-06T07:34:19;19.10;90.40
37972;DHT22;23794;48.234;8.344;2022-07-06T07:36:46;19.10;90.80
37972;DHT22;23794;48.234;8.344;2022-07-06T07:39:12;19.10;90.90
37972;DHT22;23794;48.234;8.344;2022-07-06T07:41:39;19.20;90.20
37972;DHT22;23794;48.234;8.344;2022-07-06T07:44:06;19.30;89.80
37972;DHT22;23794;48.234;8.344;2022-07-06T07:46:33;19.40;89.10
37972;DHT22;23794;48.234;8.344;2022-07-06T07:48:59;19.40;90.00
37972;DHT22;23794;48.234;8.344;2022-07-06T07:51:28;19.40;89.10
37972;DHT22;23794;48.234;8.344;2022-07-06T07:53:55;19.50;89.30
37972;DHT22;23794;48.234;8.344;2022-07-06T07:56:21;19.40;88.70
37972;DHT22;23794;48.234;8.344;2022-07-06T07:58:48;19.50;88.60
37972;DHT22;23794;48.234;8.344;2022-07-06T08:01:19;19.50;88.10
37972;DHT22;23794;48.234;8.344;2022-07-06T08:03:46;19.50;88.30
37972;DHT22;23794;48.234;8.344;2022-07-06T08:06:13;19.70;88.00
37972;DHT22;23794;48.234;8.344;2022-07-06T08:08:39;19.80;88.00
37972;DHT22;23794;48.234;8.344;2022-07-06T08:11:06;19.90;89.80
37972;DHT22;23794;48.234;8.344;2022-07-06T08:13:44;20.20;87.80
37972;DHT22;23794;48.234;8.344;2022-07-06T08:16:10;20.30;86.60
37972;DHT22;23794;48.234;8.344;2022-07-06T08:18:37;20.50;86.80
37972;DHT22;23794;48.234;8.344;2022-07-06T08:21:04;20.50;87.30
37972;DHT22;23794;48.234;8.344;2022-07-06T08:23:52;20.70;87.40
37972;DHT22;23794;48.234;8.344;2022-07-06T08:26:19;20.80;86.90
37972;DHT22;23794;48.234;8.344;2022-07-06T08:28:46;20.60;85.60
37972;DHT22;23794;48.234;8.344;2022-07-06T08:31:13;20.30;85.70
37972;DHT22;23794;48.234;8.344;2022-07-06T08:33:59;20.00;86.90
37972;DHT22;23794;48.234;8.344;2022-07-06T08:36:27;20.00;88.50
37972;DHT22;23794;48.234;8.344;2022-07-06T08:38:54;19.80;87.60
37972;DHT22;23794;48.234;8.344;2022-07-06T08:41:21;19.90;87.50
37972;DHT22;23794;48.234;8.344;2022-07-06T08:43:52;20.20;87.40
37972;DHT22;23794;48.234;8.344;2022-07-06T08:46:19;20.50;88.20
37972;DHT22;23794;48.234;8.344;2022-07-06T08:48:46;20.90;85.20
37972;DHT22;23794;48.234;8.344;2022-07-06T08:51:14;21.00;84.70
37972;DHT22;23794;48.234;8.344;2022-07-06T08:53:44;21.20;86.40
37972;DHT22;23794;48.234;8.344;2022-07-06T08:56:12;21.40;84.30
37972;DHT22;23794;48.234;8.344;2022-07-06T08:58:39;21.50;84.10
37972;DHT22;23794;48.234;8.344;2022-07-06T09:01:09;21.60;85.50
37972;DHT22;23794;48.234;8.344;2022-07-06T09:03:36;21.60;83.20
37972;DHT22;23794;48.234;8.344;2022-07-06T09:06:02;21.60;85.40
37972;DHT22;23794;48.234;8.344;2022-07-06T09:08:31;21.80;85.60
37972;DHT22;23794;48.234;8.344;2022-07-06T09:10:57;21.80;83.60
37972;DHT22;23794;48.234;8.344;2022-07-06T09:13:24;21.90;84.20
37972;DHT22;23794;48.234;8.344;2022-07-06T09:15:51;22.10;84.10
37972;DHT22;23794;48.234;8.344;2022-07-06T09:18:38;22.30;82.40
37972;DHT22;23794;48.234;8.344;2022-07-06T09:21:05;22.60;83.00
37972;DHT22;23794;48.234;8.344;2022-07-06T09:23:32;22.70;80.70
37972;DHT22;23794;48.234;8.344;2022-07-06T09:26:03;22.70;79.60
37972;DHT22;23794;48.234;8.344;2022-07-06T09:28:42;22.30;79.30
37972;DHT22;23794;48.234;8.344;2022-07-06T09:31:09;22.40;82.00
37972;DHT22;23794;48.234;8.344;2022-07-06T09:33:55;22.60;80.80
37972;DHT22;23794;48.234;8.344;2022-07-06T09:41:44;22.80;80.80
37972;DHT22;23794;48.234;8.344;2022-07-06T09:44:11;23.10;79.20
37972;DHT22;23794;48.234;8.344;2022-07-06T09:46:41;23.00;79.80
37972;DHT22;23794;48.234;8.344;2022-07-06T09:49:08;22.60;78.90
37972;DHT22;23794;48.234;8.344;2022-07-06T09:51:36;22.60;79.80
37972;DHT22;23794;48.234;8.344;2022-07-06T09:54:06;22.70;80.60
37972;DHT22;23794;48.234;8.344;2022-07-06T09:56:37;22.90;79.90
37972;DHT22;23794;48.234;8.344;2022-07-06T09:59:05;23.10;80.90
37972;DHT22;23794;48.234;8.344;2022-07-06T10:01:32;23.30;78.10
37972;DHT22;23794;48.234;8.344;2022-07-06T10:04:00;23.10;77.30
37972;DHT22;23794;48.234;8.344;2022-07-06T10:06:27;23.00;78.30
37972;DHT22;23794;48.234;8.344;2022-07-06T10:08:54;22.80;78.70
37972;DHT22;23794;48.234;8.344;2022-07-06T10:11:22;23.00;79.40
37972;DHT22;23794;48.234;8.344;2022-07-06T10:13:50;23.10;80.50
37972;DHT22;23794;48.234;8.344;2022-07-06T10:16:22;23.30;79.60
37972;DHT22;23794;48.234;8.344;2022-07-06T10:18:52;23.40;76.80
37972;DHT22;23794;48.234;8.344;2022-07-06T10:21:22;23.20;79.40
37972;DHT22;23794;48.234;8.344;2022-07-06T10:23:50;23.20;76.50
37972;DHT22;23794;48.234;8.344;2022-07-06T10:26:17;23.50;76.90
37972;DHT22;23794;48.234;8.344;2022-07-06T10:28:48;23.40;77.60
37972;DHT22;23794;48.234;8.344;2022-07-06T10:31:15;23.50;76.90
37972;DHT22;23794;48.234;8.344;2022-07-06T10:33:42;23.80;77.20
37972;DHT22;23794;48.234;8.344;2022-07-06T10:36:10;24.20;76.90
37972;DHT22;23794;48.234;8.344;2022-07-06T10:38:38;24.40;75.50
37972;DHT22;23794;48.234;8.344;2022-07-06T10:41:05;24.70;75.10
37972;DHT22;23794;48.234;8.344;2022-07-06T10:46:09;25.00;74.30
37972;DHT22;23794;48.234;8.344;2022-07-06T10:48:38;25.20;73.50
37972;DHT22;23794;48.234;8.344;2022-07-06T10:51:05;25.40;72.20
37972;DHT22;23794;48.234;8.344;2022-07-06T10:53:39;25.40;70.90
37972;DHT22;23794;48.234;8.344;2022-07-06T10:56:09;25.30;72.50
37972;DHT22;23794;48.234;8.344;2022-07-06T10:58:37;25.20;71.80
37972;DHT22;23794;48.234;8.344;2022-07-06T11:01:04;25.30;71.80
37972;DHT22;23794;48.234;8.344;2022-07-06T11:03:33;25.30;70.80
37972;DHT22;23794;48.234;8.344;2022-07-06T11:06:01;25.40;70.10
37972;DHT22;23794;48.234;8.344;2022-07-06T11:08:44;25.20;69.60
37972;DHT22;23794;48.234;8.344;2022-07-06T11:11:53;25.10;70.60
37972;DHT22;23794;48.234;8.344;2022-07-06T11:14:05;25.40;68.70
37972;DHT22;23794;48.234;8.344;2022-07-06T11:16:33;25.10;70.70
37972;DHT22;23794;48.234;8.344;2022-07-06T11:21:35;25.50;69.70
37972;DHT22;23794;48.234;8.344;2022-07-06T11:24:02;25.80;71.70
37972;DHT22;23794;48.234;8.344;2022-07-06T11:26:30;25.90;68.80
37972;DHT22;23794;48.234;8.344;2022-07-06T11:29:05;25.90;69.20
37972;DHT22;23794;48.234;8.344;2022-07-06T11:31:33;25.90;69.10
37972;DHT22;23794;48.234;8.344;2022-07-06T11:34:00;26.00;69.60
37972;DHT22;23794;48.234;8.344;2022-07-06T11:36:27;26.30;70.70
37972;DHT22;23794;48.234;8.344;2022-07-06T11:39:01;26.40;68.50
37972;DHT22;23794;48.234;8.344;2022-07-06T11:41:27;26.10;68.70
37972;DHT22;23794;48.234;8.344;2022-07-06T11:43:54;26.10;68.60
37972;DHT22;23794;48.234;8.344;2022-07-06T11:46:22;26.20;69.70
37972;DHT22;23794;48.234;8.344;2022-07-06T11:48:50;26.20;68.70
37972;DHT22;23794;48.234;8.344;2022-07-06T11:51:17;26.30;68.20
37972;DHT22;23794;48.234;8.344;2022-07-06T11:53:44;26.20;67.30
37972;DHT22;23794;48.234;8.344;2022-07-06T11:56:12;25.90;67.90
37972;DHT22;23794;48.234;8.344;2022-07-06T11:58:39;25.80;67.30
37972;DHT22;23794;48.234;8.344;2022-07-06T12:01:07;26.00;67.10
37972;DHT22;23794;48.234;8.344;2022-07-06T12:03:34;25.90;66.10
37972;DHT22;23794;48.234;8.344;2022-07-06T12:06:02;25.80;66.40
37972;DHT22;23794;48.234;8.344;2022-07-06T12:08:29;25.90;66.60
37972;DHT22;23794;48.234;8.344;2022-07-06T12:10:56;26.40;68.70
37972;DHT22;23794;48.234;8.344;2022-07-06T12:13:23;26.70;65.00
37972;DHT22;23794;48.234;8.344;2022-07-06T12:15:54;26.60;64.90
37972;DHT22;23794;48.234;8.344;2022-07-06T12:18:20;26.50;64.70
37972;DHT22;23794;48.234;8.344;2022-07-06T12:21:01;26.40;64.80
37972;DHT22;23794;48.234;8.344;2022-07-06T12:23:37;26.20;64.90
37972;DHT22;23794;48.234;8.344;2022-07-06T12:26:04;26.10;66.00
37972;DHT22;23794;48.234;8.344;2022-07-06T12:28:31;25.80;65.80
37972;DHT22;23794;48.234;8.344;2022-07-06T12:30:57;26.10;68.50
37972;DHT22;23794;48.234;8.344;2022-07-06T12:33:24;26.40;65.30
37972;DHT22;23794;48.234;8.344;2022-07-06T12:35:54;26.60;64.80
37972;DHT22;23794;48.234;8.344;2022-07-06T12:38:21;26.70;64.40
37972;DHT22;23794;48.234;8.344;2022-07-06T12:40:48;26.80;65.10
37972;DHT22;23794;48.234;8.344;2022-07-06T12:43:34;27.20;65.90
37972;DHT22;23794;48.234;8.344;2022-07-06T12:46:22;27.10;63.50
37972;DHT22;23794;48.234;8.344;2022-07-06T12:48:53;27.30;63.70
37972;DHT22;23794;48.234;8.344;2022-07-06T12:51:20;27.20;64.00
37972;DHT22;23794;48.234;8.344;2022-07-06T12:53:47;27.00;63.50
37972;DHT22;23794;48.234;8.344;2022-07-06T12:56:14;27.30;63.40
37972;DHT22;23794;48.234;8.344;2022-07-06T12:58:59;27.60;64.20
37972;DHT22;23794;48.234;8.344;2022-07-06T13:01:26;27.70;64.20
37972;DHT22;23794;48.234;8.344;2022-07-06T13:03:54;27.90;64.10
37972;DHT22;23794;48.234;8.344;2022-07-06T13:06:31;28.10;64.20
37972;DHT22;23794;48.234;8.344;2022-07-06T13:08:58;28.30;66.00
37972;DHT22;23794;48.234;8.344;2022-07-06T13:11:25;28.50;63.40
37972;DHT22;23794;48.234;8.344;2022-07-06T13:13:52;28.50;61.80
37972;DHT22;23794;48.234;8.344;2022-07-06T13:16:18;28.20;63.00
37972;DHT22;23794;48.234;8.344;2022-07-06T13:18:45;28.30;61.20
37972;DHT22;23794;48.234;8.344;2022-07-06T13:21:12;28.20;61.50
37972;DHT22;23794;48.234;8.344;2022-07-06T13:23:40;28.30;62.10
37972;DHT22;23794;48.234;8.344;2022-07-06T13:26:06;27.80;62.70
37972;DHT22;23794;48.234;8.344;2022-07-06T13:28:33;27.90;62.30
37972;DHT22;23794;48.234;8.344;2022-07-06T13:31:00;27.60;63.00
37972;DHT22;23794;48.234;8.344;2022-07-06T13:33:27;27.80;62.30
37972;DHT22;23794;48.234;8.344;2022-07-06T13:35:54;28.20;61.60
37972;DHT22;23794;48.234;8.344;2022-07-06T13:38:21;28.20;59.60
37972;DHT22;23794;48.234;8.344;2022-07-06T13:40:48;28.20;60.20
37972;DHT22;23794;48.234;8.344;2022-07-06T13:43:14;28.00;59.10
37972;DHT22;23794;48.234;8.344;2022-07-06T13:45:41;27.80;58.20
37972;DHT22;23794;48.234;8.344;2022-07-06T13:48:08;27.50;59.80
37972;DHT22;23794;48.234;8.344;2022-07-06T13:50:34;28.00;59.50
37972;DHT22;23794;48.234;8.344;2022-07-06T13:53:01;28.10;59.40
37972;DHT22;23794;48.234;8.344;2022-07-06T13:55:28;28.20;60.00
37972;DHT22;23794;48.234;8.344;2022-07-06T13:57:56;28.20;59.80
37972;DHT22;23794;48.234;8.344;2022-07-06T14:00:22;28.30;59.50
37972;DHT22;23794;48.234;8.344;2022-07-06T14:02:49;28.10;58.70
37972;DHT22;23794;48.234;8.344;2022-07-06T14:05:16;28.20;59.10
37972;DHT22;23794;48.234;8.344;2022-07-06T14:07:43;28.20;59.40
37972;DHT22;23794;48.234;8.344;2022-07-06T14:10:09;28.70;59.60
37972;DHT22;23794;48.234;8.344;2022-07-06T14:12:36;28.70;59.50
37972;DHT22;23794;48.234;8.344;2022-07-06T14:15:03;29.10;58.50
37972;DHT22;23794;48.234;8.344;2022-07-06T14:17:30;29.40;59.30
37972;DHT22;23794;48.234;8.344;2022-07-06T14:19:56;29.60;58.80
37972;DHT22;23794;48.234;8.344;2022-07-06T14:22:23;29.90;57.60
37972;DHT22;23794;48.234;8.344;2022-07-06T14:24:50;30.10;57.90
37972;DHT22;23794;48.234;8.344;2022-07-06T14:27:16;30.00;57.70
37972;DHT22;23794;48.234;8.344;2022-07-06T14:29:43;29.90;57.70
37972;DHT22;23794;48.234;8.344;2022-07-06T14:32:10;29.80;58.40
37972;DHT22;23794;48.234;8.344;2022-07-06T14:34:37;29.40;58.70
37972;DHT22;23794;48.234;8.344;2022-07-06T14:37:03;28.70;59.10
37972;DHT22;23794;48.234;8.344;2022-07-06T14:39:30;28.40;59.30
37972;DHT22;23794;48.234;8.344;2022-07-06T14:41:57;28.30;59.70
37972;DHT22;23794;48.234;8.344;2022-07-06T14:44:25;28.60;58.20
37972;DHT22;23794;48.234;8.344;2022-07-06T14:46:52;28.70;59.00
37972;DHT22;23794;48.234;8.344;2022-07-06T14:49:19;29.30;58.20
37972;DHT22;23794;48.234;8.344;2022-07-06T14:51:47;29.40;58.10
37972;DHT22;23794;48.234;8.344;2022-07-06T14:54:14;29.20;58.70
37972;DHT22;23794;48.234;8.344;2022-07-06T14:56:41;29.40;57.40
37972;DHT22;23794;48.234;8.344;2022-07-06T14:59:08;29.10;58.20
37972;DHT22;23794;48.234;8.344;2022-07-06T15:01:52;28.90;58.70
37972;DHT22;23794;48.234;8.344;2022-07-06T15:04:18;28.80;58.00
37972;DHT22;23794;48.234;8.344;2022-07-06T15:06:45;28.70;57.70
37972;DHT22;23794;48.234;8.344;2022-07-06T15:09:22;28.50;58.30
37972;DHT22;23794;48.234;8.344;2022-07-06T15:11:49;28.40;58.90
37972;DHT22;23794;48.234;8.344;2022-07-06T15:14:15;29.00;58.30
37972;DHT22;23794;48.234;8.344;2022-07-06T15:16:44;29.00;58.10
37972;DHT22;23794;48.234;8.344;2022-07-06T15:19:11;28.50;57.90
37972;DHT22;23794;48.234;8.344;2022-07-06T15:21:37;27.90;58.30
37972;DHT22;23794;48.234;8.344;2022-07-06T15:24:04;27.40;59.10
37972;DHT22;23794;48.234;8.344;2022-07-06T15:26:31;27.00;60.00
37972;DHT22;23794;48.234;8.344;2022-07-06T15:28:58;26.60;60.40
37972;DHT22;23794;48.234;8.344;2022-07-06T15:31:25;25.90;61.40
37972;DHT22;23794;48.234;8.344;2022-07-06T15:33:51;25.00;62.20
37972;DHT22;23794;48.234;8.344;2022-07-06T15:36:18;24.50;63.40
37972;DHT22;23794;48.234;8.344;2022-07-06T15:38:45;24.00;63.20
37972;DHT22;23794;48.234;8.344;2022-07-06T15:41:12;23.60;63.90
37972;DHT22;23794;48.234;8.344;2022-07-06T15:43:39;23.20;64.30
37972;DHT22;23794;48.234;8.344;2022-07-06T15:46:05;22.80;64.90
37972;DHT22;23794;48.234;8.344;2022-07-06T15:48:33;22.60;65.90